Terminal Aerodrome Forecast
Issued by NWS

Home | Current Version | Previous Version | Graphics & Text | Print | Product List | Glossary Off
Versions: 1 2 3 4 5 6 7 8 9 10 11 12

000
FTUS45 KGGW 290520
TAFOLF
TAF
KOLF 290520Z 2906/3006 VRB04KT P6SM SCT100
     FM292100 23006KT P6SM SCT070
     FM300300 15004KT P6SM SCT100=

USA.gov is the U.S. government's official web portal to all federal, state and local government web resources and services.